sensor_id;sensor_type;location;lat;lon;timestamp;temperature;humidity
16301;DHT22;8258;51.020;4.248;2024-03-17T00:00:20;7.60;99.90
16301;DHT22;8258;51.020;4.248;2024-03-17T00:02:48;7.60;99.90
16301;DHT22;8258;51.020;4.248;2024-03-17T00:05:14;7.70;99.90
16301;DHT22;8258;51.020;4.248;2024-03-17T00:07:41;7.70;99.90
16301;DHT22;8258;51.020;4.248;2024-03-17T00:10:09;7.80;99.90
16301;DHT22;8258;51.020;4.248;2024-03-17T00:12:36;7.80;99.90
16301;DHT22;8258;51.020;4.248;2024-03-17T00:15:02;7.80;99.90
16301;DHT22;8258;51.020;4.248;2024-03-17T00:17:29;7.90;99.90
16301;DHT22;8258;51.020;4.248;2024-03-17T00:19:55;7.90;99.90
16301;DHT22;8258;51.020;4.248;2024-03-17T00:22:22;7.90;99.90
16301;DHT22;8258;51.020;4.248;2024-03-17T00:24:48;7.80;99.90
16301;DHT22;8258;51.020;4.248;2024-03-17T00:27:16;7.90;99.90
16301;DHT22;8258;51.020;4.248;2024-03-17T00:29:42;7.80;99.90
16301;DHT22;8258;51.020;4.248;2024-03-17T00:32:09;7.90;99.90
16301;DHT22;8258;51.020;4.248;2024-03-17T00:34:37;7.90;99.90
16301;DHT22;8258;51.020;4.248;2024-03-17T00:37:04;8.00;99.90
16301;DHT22;8258;51.020;4.248;2024-03-17T00:39:30;7.90;99.90
16301;DHT22;8258;51.020;4.248;2024-03-17T00:41:57;8.00;99.90
16301;DHT22;8258;51.020;4.248;2024-03-17T00:44:25;7.90;99.90
16301;DHT22;8258;51.020;4.248;2024-03-17T00:46:52;7.80;99.90
16301;DHT22;8258;51.020;4.248;2024-03-17T00:49:18;7.70;99.90
16301;DHT22;8258;51.020;4.248;2024-03-17T00:51:45;7.60;99.90
16301;DHT22;8258;51.020;4.248;2024-03-17T00:54:13;7.50;99.90
16301;DHT22;8258;51.020;4.248;2024-03-17T00:56:40;7.50;99.90
16301;DHT22;8258;51.020;4.248;2024-03-17T00:59:06;7.50;99.90
16301;DHT22;8258;51.020;4.248;2024-03-17T01:01:34;7.60;99.90
16301;DHT22;8258;51.020;4.248;2024-03-17T01:04:00;7.50;99.90
16301;DHT22;8258;51.020;4.248;2024-03-17T01:06:27;7.50;99.90
16301;DHT22;8258;51.020;4.248;2024-03-17T01:08:53;7.40;99.90
16301;DHT22;8258;51.020;4.248;2024-03-17T01:11:20;7.30;99.90
16301;DHT22;8258;51.020;4.248;2024-03-17T01:13:46;7.30;99.90
16301;DHT22;8258;51.020;4.248;2024-03-17T01:16:13;7.30;99.90
16301;DHT22;8258;51.020;4.248;2024-03-17T01:18:41;7.30;99.90
16301;DHT22;8258;51.020;4.248;2024-03-17T01:21:09;7.40;99.90
16301;DHT22;8258;51.020;4.248;2024-03-17T01:23:35;7.40;99.90
16301;DHT22;8258;51.020;4.248;2024-03-17T01:26:02;7.40;99.90
16301;DHT22;8258;51.020;4.248;2024-03-17T01:28:27;7.50;99.90
16301;DHT22;8258;51.020;4.248;2024-03-17T01:30:54;7.50;99.90
16301;DHT22;8258;51.020;4.248;2024-03-17T01:33:20;7.50;99.90
16301;DHT22;8258;51.020;4.248;2024-03-17T01:35:48;7.50;99.90
16301;DHT22;8258;51.020;4.248;2024-03-17T01:38:14;7.60;99.90
16301;DHT22;8258;51.020;4.248;2024-03-17T01:40:41;7.60;99.90
16301;DHT22;8258;51.020;4.248;2024-03-17T01:43:10;7.70;99.90
16301;DHT22;8258;51.020;4.248;2024-03-17T01:45:37;7.80;99.90
16301;DHT22;8258;51.020;4.248;2024-03-17T01:48:03;7.80;99.90
16301;DHT22;8258;51.020;4.248;2024-03-17T01:50:32;7.80;99.90
16301;DHT22;8258;51.020;4.248;2024-03-17T01:53:03;7.90;99.90
16301;DHT22;8258;51.020;4.248;2024-03-17T01:55:31;7.90;99.90
16301;DHT22;8258;51.020;4.248;2024-03-17T01:57:58;8.00;99.90
16301;DHT22;8258;51.020;4.248;2024-03-17T02:00:25;8.00;99.90
16301;DHT22;8258;51.020;4.248;2024-03-17T02:02:52;8.00;99.90
16301;DHT22;8258;51.020;4.248;2024-03-17T02:05:19;8.00;99.90
16301;DHT22;8258;51.020;4.248;2024-03-17T02:07:45;8.00;99.90
16301;DHT22;8258;51.020;4.248;2024-03-17T02:10:13;8.00;99.90
16301;DHT22;8258;51.020;4.248;2024-03-17T02:12:40;8.10;99.90
16301;DHT22;8258;51.020;4.248;2024-03-17T02:15:08;8.10;99.90
16301;DHT22;8258;51.020;4.248;2024-03-17T02:17:34;8.10;99.90
16301;DHT22;8258;51.020;4.248;2024-03-17T02:20:01;8.10;99.90
16301;DHT22;8258;51.020;4.248;2024-03-17T02:22:29;8.20;99.90
16301;DHT22;8258;51.020;4.248;2024-03-17T02:24:56;8.20;99.90
16301;DHT22;8258;51.020;4.248;2024-03-17T02:27:22;8.30;99.90
16301;DHT22;8258;51.020;4.248;2024-03-17T02:29:49;8.30;99.90
16301;DHT22;8258;51.020;4.248;2024-03-17T02:32:15;8.30;99.90
16301;DHT22;8258;51.020;4.248;2024-03-17T02:34:42;8.40;99.90
16301;DHT22;8258;51.020;4.248;2024-03-17T02:37:10;8.40;99.90
16301;DHT22;8258;51.020;4.248;2024-03-17T02:39:38;8.40;99.90
16301;DHT22;8258;51.020;4.248;2024-03-17T02:42:06;8.40;99.90
16301;DHT22;8258;51.020;4.248;2024-03-17T02:44:34;8.40;99.90
16301;DHT22;8258;51.020;4.248;2024-03-17T02:47:02;8.40;99.90
16301;DHT22;8258;51.020;4.248;2024-03-17T02:49:31;8.40;99.90
16301;DHT22;8258;51.020;4.248;2024-03-17T02:52:03;8.40;99.90
16301;DHT22;8258;51.020;4.248;2024-03-17T02:54:30;8.40;99.90
16301;DHT22;8258;51.020;4.248;2024-03-17T02:56:58;8.30;99.90
16301;DHT22;8258;51.020;4.248;2024-03-17T02:59:25;8.30;99.90
16301;DHT22;8258;51.020;4.248;2024-03-17T03:01:52;8.30;99.90
16301;DHT22;8258;51.020;4.248;2024-03-17T03:04:20;8.30;99.90
16301;DHT22;8258;51.020;4.248;2024-03-17T03:06:47;8.30;99.90
16301;DHT22;8258;51.020;4.248;2024-03-17T03:09:14;8.30;99.90
16301;DHT22;8258;51.020;4.248;2024-03-17T03:11:47;8.30;99.90
16301;DHT22;8258;51.020;4.248;2024-03-17T03:14:15;8.30;99.90
16301;DHT22;8258;51.020;4.248;2024-03-17T03:16:42;8.30;99.90
16301;DHT22;8258;51.020;4.248;2024-03-17T03:19:09;8.30;99.90
16301;DHT22;8258;51.020;4.248;2024-03-17T03:21:36;8.30;99.90
16301;DHT22;8258;51.020;4.248;2024-03-17T03:24:03;8.30;99.90
16301;DHT22;8258;51.020;4.248;2024-03-17T03:26:30;8.30;99.90
16301;DHT22;8258;51.020;4.248;2024-03-17T03:28:57;8.30;99.90
16301;DHT22;8258;51.020;4.248;2024-03-17T03:31:25;8.40;99.90
16301;DHT22;8258;51.020;4.248;2024-03-17T03:33:52;8.40;99.90
16301;DHT22;8258;51.020;4.248;2024-03-17T03:36:20;8.30;99.90
16301;DHT22;8258;51.020;4.248;2024-03-17T03:38:47;8.30;99.90
16301;DHT22;8258;51.020;4.248;2024-03-17T03:41:15;8.30;99.90
16301;DHT22;8258;51.020;4.248;2024-03-17T03:43:42;8.30;99.90
16301;DHT22;8258;51.020;4.248;2024-03-17T03:46:11;8.30;99.90
16301;DHT22;8258;51.020;4.248;2024-03-17T03:48:40;8.20;99.90
16301;DHT22;8258;51.020;4.248;2024-03-17T03:51:07;8.10;99.90
16301;DHT22;8258;51.020;4.248;2024-03-17T03:53:36;8.10;99.90
16301;DHT22;8258;51.020;4.248;2024-03-17T03:56:04;8.10;99.90
16301;DHT22;8258;51.020;4.248;2024-03-17T03:58:32;8.00;99.90
16301;DHT22;8258;51.020;4.248;2024-03-17T04:01:00;7.90;99.90
16301;DHT22;8258;51.020;4.248;2024-03-17T04:03:27;7.90;99.90
16301;DHT22;8258;51.020;4.248;2024-03-17T04:06:02;7.80;99.90
16301;DHT22;8258;51.020;4.248;2024-03-17T04:08:30;7.80;99.90
16301;DHT22;8258;51.020;4.248;2024-03-17T04:10:57;7.80;99.90
16301;DHT22;8258;51.020;4.248;2024-03-17T04:13:25;7.80;99.90
16301;DHT22;8258;51.020;4.248;2024-03-17T04:15:52;7.70;99.90
16301;DHT22;8258;51.020;4.248;2024-03-17T04:18:22;7.60;99.90
16301;DHT22;8258;51.020;4.248;2024-03-17T04:20:50;7.60;99.90
16301;DHT22;8258;51.020;4.248;2024-03-17T04:23:20;7.60;99.90
16301;DHT22;8258;51.020;4.248;2024-03-17T04:25:47;7.50;99.90
16301;DHT22;8258;51.020;4.248;2024-03-17T04:28:14;7.40;99.90
16301;DHT22;8258;51.020;4.248;2024-03-17T04:30:41;7.40;99.90
16301;DHT22;8258;51.020;4.248;2024-03-17T04:33:08;7.30;99.90
16301;DHT22;8258;51.020;4.248;2024-03-17T04:35:37;7.30;99.90
16301;DHT22;8258;51.020;4.248;2024-03-17T04:38:04;7.20;99.90
16301;DHT22;8258;51.020;4.248;2024-03-17T04:40:32;7.10;99.90
16301;DHT22;8258;51.020;4.248;2024-03-17T04:42:59;7.10;99.90
16301;DHT22;8258;51.020;4.248;2024-03-17T04:45:26;7.10;99.90
16301;DHT22;8258;51.020;4.248;2024-03-17T04:47:53;7.10;99.90
16301;DHT22;8258;51.020;4.248;2024-03-17T04:50:20;7.10;99.90
16301;DHT22;8258;51.020;4.248;2024-03-17T04:52:48;7.10;99.90
16301;DHT22;8258;51.020;4.248;2024-03-17T04:55:16;7.10;99.90
16301;DHT22;8258;51.020;4.248;2024-03-17T04:57:45;7.10;99.90
16301;DHT22;8258;51.020;4.248;2024-03-17T05:00:13;7.20;99.90
16301;DHT22;8258;51.020;4.248;2024-03-17T05:02:43;7.20;99.90
16301;DHT22;8258;51.020;4.248;2024-03-17T05:05:10;7.20;99.90
16301;DHT22;8258;51.020;4.248;2024-03-17T05:07:37;7.10;99.90
16301;DHT22;8258;51.020;4.248;2024-03-17T05:10:05;7.20;99.90
16301;DHT22;8258;51.020;4.248;2024-03-17T05:12:33;7.20;99.90
16301;DHT22;8258;51.020;4.248;2024-03-17T05:15:01;7.20;99.90
16301;DHT22;8258;51.020;4.248;2024-03-17T05:17:29;7.30;99.90
16301;DHT22;8258;51.020;4.248;2024-03-17T05:19:57;7.30;99.90
16301;DHT22;8258;51.020;4.248;2024-03-17T05:22:23;7.30;99.90
16301;DHT22;8258;51.020;4.248;2024-03-17T05:24:50;7.30;99.90
16301;DHT22;8258;51.020;4.248;2024-03-17T05:27:18;7.30;99.90
16301;DHT22;8258;51.020;4.248;2024-03-17T05:29:45;7.40;99.90
16301;DHT22;8258;51.020;4.248;2024-03-17T05:32:13;7.40;99.90
16301;DHT22;8258;51.020;4.248;2024-03-17T05:34:40;7.50;99.90
16301;DHT22;8258;51.020;4.248;2024-03-17T05:37:07;7.60;99.90
16301;DHT22;8258;51.020;4.248;2024-03-17T05:39:34;7.70;99.90
16301;DHT22;8258;51.020;4.248;2024-03-17T05:42:01;7.70;99.90
16301;DHT22;8258;51.020;4.248;2024-03-17T05:44:29;7.80;99.90
16301;DHT22;8258;51.020;4.248;2024-03-17T05:47:05;7.90;99.90
16301;DHT22;8258;51.020;4.248;2024-03-17T05:49:35;7.90;99.90
16301;DHT22;8258;51.020;4.248;2024-03-17T05:52:02;7.90;99.90
16301;DHT22;8258;51.020;4.248;2024-03-17T05:54:29;7.90;99.90
16301;DHT22;8258;51.020;4.248;2024-03-17T05:56:56;7.90;99.90
16301;DHT22;8258;51.020;4.248;2024-03-17T05:59:23;7.90;99.90
16301;DHT22;8258;51.020;4.248;2024-03-17T06:01:50;7.90;99.90
16301;DHT22;8258;51.020;4.248;2024-03-17T06:04:17;7.90;99.90
16301;DHT22;8258;51.020;4.248;2024-03-17T06:06:45;7.90;99.90
16301;DHT22;8258;51.020;4.248;2024-03-17T06:09:14;7.90;99.90
16301;DHT22;8258;51.020;4.248;2024-03-17T06:11:44;7.80;99.90
16301;DHT22;8258;51.020;4.248;2024-03-17T06:14:12;7.80;99.90
16301;DHT22;8258;51.020;4.248;2024-03-17T06:16:39;7.80;99.90
16301;DHT22;8258;51.020;4.248;2024-03-17T06:19:06;7.80;99.90
16301;DHT22;8258;51.020;4.248;2024-03-17T06:21:33;7.80;99.90
16301;DHT22;8258;51.020;4.248;2024-03-17T06:24:02;7.90;99.90
16301;DHT22;8258;51.020;4.248;2024-03-17T06:26:29;7.90;99.90
16301;DHT22;8258;51.020;4.248;2024-03-17T06:28:57;7.90;99.90
16301;DHT22;8258;51.020;4.248;2024-03-17T06:31:24;7.90;99.90
16301;DHT22;8258;51.020;4.248;2024-03-17T06:33:51;7.90;99.90
16301;DHT22;8258;51.020;4.248;2024-03-17T06:36:18;7.90;99.90
16301;DHT22;8258;51.020;4.248;2024-03-17T06:38:45;7.90;99.90
16301;DHT22;8258;51.020;4.248;2024-03-17T06:41:13;7.90;99.90
16301;DHT22;8258;51.020;4.248;2024-03-17T06:43:40;7.90;99.90
16301;DHT22;8258;51.020;4.248;2024-03-17T06:46:09;7.90;99.90
16301;DHT22;8258;51.020;4.248;2024-03-17T06:48:36;7.90;99.90
16301;DHT22;8258;51.020;4.248;2024-03-17T06:51:03;8.00;99.90
16301;DHT22;8258;51.020;4.248;2024-03-17T06:53:31;8.00;99.90
16301;DHT22;8258;51.020;4.248;2024-03-17T06:56:00;8.00;99.90
16301;DHT22;8258;51.020;4.248;2024-03-17T06:58:28;8.10;99.90
16301;DHT22;8258;51.020;4.248;2024-03-17T07:00:56;8.20;99.90
16301;DHT22;8258;51.020;4.248;2024-03-17T07:03:25;8.20;99.90
16301;DHT22;8258;51.020;4.248;2024-03-17T07:05:53;8.30;99.90
16301;DHT22;8258;51.020;4.248;2024-03-17T07:08:22;8.30;99.90
16301;DHT22;8258;51.020;4.248;2024-03-17T07:10:59;8.30;99.90
16301;DHT22;8258;51.020;4.248;2024-03-17T07:13:31;8.50;99.90
16301;DHT22;8258;51.020;4.248;2024-03-17T07:15:58;8.70;99.90
16301;DHT22;8258;51.020;4.248;2024-03-17T07:18:26;8.80;99.90
16301;DHT22;8258;51.020;4.248;2024-03-17T07:20:56;8.90;99.90
16301;DHT22;8258;51.020;4.248;2024-03-17T07:23:23;9.00;99.90
16301;DHT22;8258;51.020;4.248;2024-03-17T07:25:54;9.00;99.90
16301;DHT22;8258;51.020;4.248;2024-03-17T07:28:22;9.10;99.90
16301;DHT22;8258;51.020;4.248;2024-03-17T07:30:51;9.20;99.90
16301;DHT22;8258;51.020;4.248;2024-03-17T07:33:19;9.30;99.90
16301;DHT22;8258;51.020;4.248;2024-03-17T07:35:50;9.30;99.90
16301;DHT22;8258;51.020;4.248;2024-03-17T07:38:18;9.40;99.90
16301;DHT22;8258;51.020;4.248;2024-03-17T07:40:54;9.50;99.90
16301;DHT22;8258;51.020;4.248;2024-03-17T07:43:21;9.60;99.90
16301;DHT22;8258;51.020;4.248;2024-03-17T07:45:58;9.70;99.90
16301;DHT22;8258;51.020;4.248;2024-03-17T07:48:25;9.80;99.90
16301;DHT22;8258;51.020;4.248;2024-03-17T07:50:56;9.90;99.90
16301;DHT22;8258;51.020;4.248;2024-03-17T07:53:23;10.10;99.90
16301;DHT22;8258;51.020;4.248;2024-03-17T07:56:02;10.20;99.90
16301;DHT22;8258;51.020;4.248;2024-03-17T07:58:30;10.40;99.90
16301;DHT22;8258;51.020;4.248;2024-03-17T08:01:01;10.70;99.90
16301;DHT22;8258;51.020;4.248;2024-03-17T08:03:29;11.00;99.90
16301;DHT22;8258;51.020;4.248;2024-03-17T08:05:57;11.20;99.90
16301;DHT22;8258;51.020;4.248;2024-03-17T08:08:24;11.40;99.90
16301;DHT22;8258;51.020;4.248;2024-03-17T08:10:51;11.50;99.90
16301;DHT22;8258;51.020;4.248;2024-03-17T08:13:18;11.50;99.90
16301;DHT22;8258;51.020;4.248;2024-03-17T08:15:46;11.60;99.90
16301;DHT22;8258;51.020;4.248;2024-03-17T08:18:15;11.60;99.90
16301;DHT22;8258;51.020;4.248;2024-03-17T08:20:42;11.60;99.90
16301;DHT22;8258;51.020;4.248;2024-03-17T08:23:10;11.40;99.90
16301;DHT22;8258;51.020;4.248;2024-03-17T08:25:37;11.50;99.90
16301;DHT22;8258;51.020;4.248;2024-03-17T08:28:05;11.50;99.90
16301;DHT22;8258;51.020;4.248;2024-03-17T08:30:32;11.50;99.90
16301;DHT22;8258;51.020;4.248;2024-03-17T08:32:59;11.60;99.90
16301;DHT22;8258;51.020;4.248;2024-03-17T08:35:28;11.60;99.90
16301;DHT22;8258;51.020;4.248;2024-03-17T08:37:55;11.60;99.90
16301;DHT22;8258;51.020;4.248;2024-03-17T08:40:22;11.70;99.90
16301;DHT22;8258;51.020;4.248;2024-03-17T08:42:49;11.70;99.90
16301;DHT22;8258;51.020;4.248;2024-03-17T08:45:16;11.70;99.90
16301;DHT22;8258;51.020;4.248;2024-03-17T08:47:43;11.70;99.90
16301;DHT22;8258;51.020;4.248;2024-03-17T08:50:10;11.80;99.90
16301;DHT22;8258;51.020;4.248;2024-03-17T08:52:39;11.80;99.90
16301;DHT22;8258;51.020;4.248;2024-03-17T08:55:09;11.90;99.90
16301;DHT22;8258;51.020;4.248;2024-03-17T08:57:39;11.80;99.90
16301;DHT22;8258;51.020;4.248;2024-03-17T09:00:08;11.60;99.90
16301;DHT22;8258;51.020;4.248;2024-03-17T09:02:35;11.50;99.90
16301;DHT22;8258;51.020;4.248;2024-03-17T09:05:02;11.40;99.90
16301;DHT22;8258;51.020;4.248;2024-03-17T09:07:30;11.20;99.90
16301;DHT22;8258;51.020;4.248;2024-03-17T09:09:59;11.20;99.90
16301;DHT22;8258;51.020;4.248;2024-03-17T09:12:26;11.20;99.90
16301;DHT22;8258;51.020;4.248;2024-03-17T09:14:53;11.20;99.90
16301;DHT22;8258;51.020;4.248;2024-03-17T09:17:20;11.10;99.90
16301;DHT22;8258;51.020;4.248;2024-03-17T09:19:47;11.20;99.90
16301;DHT22;8258;51.020;4.248;2024-03-17T09:22:14;11.20;99.90
16301;DHT22;8258;51.020;4.248;2024-03-17T09:24:41;11.10;99.90
16301;DHT22;8258;51.020;4.248;2024-03-17T09:27:09;11.00;99.90
16301;DHT22;8258;51.020;4.248;2024-03-17T09:29:36;11.00;99.90
16301;DHT22;8258;51.020;4.248;2024-03-17T09:32:04;10.90;99.90
16301;DHT22;8258;51.020;4.248;2024-03-17T09:34:30;10.90;99.90
16301;DHT22;8258;51.020;4.248;2024-03-17T09:36:57;10.90;99.90
16301;DHT22;8258;51.020;4.248;2024-03-17T09:39:24;10.90;99.90
16301;DHT22;8258;51.020;4.248;2024-03-17T09:41:51;10.90;99.90
16301;DHT22;8258;51.020;4.248;2024-03-17T09:44:20;10.90;99.90
16301;DHT22;8258;51.020;4.248;2024-03-17T09:46:47;10.90;99.90
16301;DHT22;8258;51.020;4.248;2024-03-17T09:49:15;10.90;99.90
16301;DHT22;8258;51.020;4.248;2024-03-17T09:51:42;11.00;99.90
16301;DHT22;8258;51.020;4.248;2024-03-17T09:54:17;11.10;99.90
16301;DHT22;8258;51.020;4.248;2024-03-17T09:56:46;11.20;99.90
16301;DHT22;8258;51.020;4.248;2024-03-17T09:59:13;11.40;99.90
16301;DHT22;8258;51.020;4.248;2024-03-17T10:01:41;11.50;99.90
16301;DHT22;8258;51.020;4.248;2024-03-17T10:04:11;11.60;99.90
16301;DHT22;8258;51.020;4.248;2024-03-17T10:06:45;11.80;99.90
16301;DHT22;8258;51.020;4.248;2024-03-17T10:09:16;12.00;99.90
16301;DHT22;8258;51.020;4.248;2024-03-17T10:11:46;12.00;99.90
16301;DHT22;8258;51.020;4.248;2024-03-17T10:14:16;12.20;99.90
16301;DHT22;8258;51.020;4.248;2024-03-17T10:16:45;12.30;99.90
16301;DHT22;8258;51.020;4.248;2024-03-17T10:19:13;12.20;99.90
16301;DHT22;8258;51.020;4.248;2024-03-17T10:21:42;12.30;99.90
16301;DHT22;8258;51.020;4.248;2024-03-17T10:24:10;12.30;99.90
16301;DHT22;8258;51.020;4.248;2024-03-17T10:26:48;12.40;99.90
16301;DHT22;8258;51.020;4.248;2024-03-17T10:29:20;12.50;99.90
16301;DHT22;8258;51.020;4.248;2024-03-17T10:31:48;12.60;99.90
16301;DHT22;8258;51.020;4.248;2024-03-17T10:34:16;12.60;99.90
16301;DHT22;8258;51.020;4.248;2024-03-17T10:36:44;12.70;99.90
16301;DHT22;8258;51.020;4.248;2024-03-17T10:39:27;12.60;99.90
16301;DHT22;8258;51.020;4.248;2024-03-17T10:41:59;12.60;99.90
16301;DHT22;8258;51.020;4.248;2024-03-17T10:44:27;12.70;99.90
16301;DHT22;8258;51.020;4.248;2024-03-17T10:46:58;12.80;99.90
16301;DHT22;8258;51.020;4.248;2024-03-17T10:49:29;12.70;99.90
16301;DHT22;8258;51.020;4.248;2024-03-17T10:51:58;12.80;99.90
16301;DHT22;8258;51.020;4.248;2024-03-17T10:54:26;12.90;99.90
16301;DHT22;8258;51.020;4.248;2024-03-17T10:56:55;13.00;99.90
16301;DHT22;8258;51.020;4.248;2024-03-17T10:59:28;13.10;99.90
16301;DHT22;8258;51.020;4.248;2024-03-17T11:02:02;13.10;99.90
16301;DHT22;8258;51.020;4.248;2024-03-17T11:04:29;13.10;99.90
16301;DHT22;8258;51.020;4.248;2024-03-17T11:06:57;13.00;99.90
16301;DHT22;8258;51.020;4.248;2024-03-17T11:09:26;13.20;99.90
16301;DHT22;8258;51.020;4.248;2024-03-17T11:11:53;13.40;99.90
16301;DHT22;8258;51.020;4.248;2024-03-17T11:14:21;13.50;99.90
16301;DHT22;8258;51.020;4.248;2024-03-17T11:16:49;13.60;99.90
16301;DHT22;8258;51.020;4.248;2024-03-17T11:19:17;13.80;99.90
16301;DHT22;8258;51.020;4.248;2024-03-17T11:21:44;13.90;99.90
16301;DHT22;8258;51.020;4.248;2024-03-17T11:24:19;14.30;99.90
16301;DHT22;8258;51.020;4.248;2024-03-17T11:26:46;14.60;99.90
16301;DHT22;8258;51.020;4.248;2024-03-17T11:29:27;14.90;99.90
16301;DHT22;8258;51.020;4.248;2024-03-17T11:31:54;15.00;99.90
16301;DHT22;8258;51.020;4.248;2024-03-17T11:34:34;15.20;99.90
16301;DHT22;8258;51.020;4.248;2024-03-17T11:37:03;15.50;99.90
16301;DHT22;8258;51.020;4.248;2024-03-17T11:39:53;15.60;99.90
16301;DHT22;8258;51.020;4.248;2024-03-17T11:42:25;15.80;99.90
16301;DHT22;8258;51.020;4.248;2024-03-17T11:45:05;15.40;99.90
16301;DHT22;8258;51.020;4.248;2024-03-17T11:47:37;15.70;99.90
16301;DHT22;8258;51.020;4.248;2024-03-17T11:50:07;16.20;99.90
16301;DHT22;8258;51.020;4.248;2024-03-17T11:52:35;16.50;99.90
16301;DHT22;8258;51.020;4.248;2024-03-17T11:55:02;16.60;99.90
16301;DHT22;8258;51.020;4.248;2024-03-17T11:57:29;16.90;99.90
16301;DHT22;8258;51.020;4.248;2024-03-17T11:59:56;16.70;99.90
16301;DHT22;8258;51.020;4.248;2024-03-17T12:02:25;16.60;99.90
16301;DHT22;8258;51.020;4.248;2024-03-17T12:04:52;17.00;99.90
16301;DHT22;8258;51.020;4.248;2024-03-17T12:07:21;16.80;99.90
16301;DHT22;8258;51.020;4.248;2024-03-17T12:09:49;16.80;99.90
16301;DHT22;8258;51.020;4.248;2024-03-17T12:12:18;16.80;99.90
16301;DHT22;8258;51.020;4.248;2024-03-17T12:14:45;16.30;99.90
16301;DHT22;8258;51.020;4.248;2024-03-17T12:17:13;16.30;99.90
16301;DHT22;8258;51.020;4.248;2024-03-17T12:19:40;17.40;99.90
16301;DHT22;8258;51.020;4.248;2024-03-17T12:22:08;18.60;99.90
16301;DHT22;8258;51.020;4.248;2024-03-17T12:24:38;18.20;99.90
16301;DHT22;8258;51.020;4.248;2024-03-17T12:27:06;18.30;99.90
16301;DHT22;8258;51.020;4.248;2024-03-17T12:29:33;18.20;99.90
16301;DHT22;8258;51.020;4.248;2024-03-17T12:32:02;18.10;99.90
16301;DHT22;8258;51.020;4.248;2024-03-17T12:34:32;17.80;99.90
16301;DHT22;8258;51.020;4.248;2024-03-17T12:36:59;17.30;99.90
16301;DHT22;8258;51.020;4.248;2024-03-17T12:39:27;16.80;99.90
16301;DHT22;8258;51.020;4.248;2024-03-17T12:42:05;16.40;99.90
16301;DHT22;8258;51.020;4.248;2024-03-17T12:44:34;15.90;99.90
16301;DHT22;8258;51.020;4.248;2024-03-17T12:47:02;15.70;99.90
16301;DHT22;8258;51.020;4.248;2024-03-17T12:49:29;15.40;99.90
16301;DHT22;8258;51.020;4.248;2024-03-17T12:51:56;15.40;99.90
16301;DHT22;8258;51.020;4.248;2024-03-17T12:54:26;15.40;99.90
16301;DHT22;8258;51.020;4.248;2024-03-17T12:57:05;15.30;99.90
16301;DHT22;8258;51.020;4.248;2024-03-17T12:59:50;15.30;99.90
16301;DHT22;8258;51.020;4.248;2024-03-17T13:02:34;15.30;99.90
16301;DHT22;8258;51.020;4.248;2024-03-17T13:05:22;15.40;99.90
16301;DHT22;8258;51.020;4.248;2024-03-17T13:07:49;15.50;99.90
16301;DHT22;8258;51.020;4.248;2024-03-17T13:10:17;15.50;99.90
16301;DHT22;8258;51.020;4.248;2024-03-17T13:12:47;15.60;99.90
16301;DHT22;8258;51.020;4.248;2024-03-17T13:15:15;15.80;99.90
16301;DHT22;8258;51.020;4.248;2024-03-17T13:17:43;15.90;99.90
16301;DHT22;8258;51.020;4.248;2024-03-17T13:20:13;16.00;99.90
16301;DHT22;8258;51.020;4.248;2024-03-17T13:22:41;16.00;99.90
16301;DHT22;8258;51.020;4.248;2024-03-17T13:25:10;16.00;99.90
16301;DHT22;8258;51.020;4.248;2024-03-17T13:27:39;16.00;99.90
16301;DHT22;8258;51.020;4.248;2024-03-17T13:30:09;15.90;99.90
16301;DHT22;8258;51.020;4.248;2024-03-17T13:32:36;15.50;99.90
16301;DHT22;8258;51.020;4.248;2024-03-17T13:35:05;15.40;99.90
16301;DHT22;8258;51.020;4.248;2024-03-17T13:37:34;15.40;99.90
16301;DHT22;8258;51.020;4.248;2024-03-17T13:40:01;15.50;99.90
16301;DHT22;8258;51.020;4.248;2024-03-17T13:42:30;15.40;99.90
16301;DHT22;8258;51.020;4.248;2024-03-17T13:44:57;15.50;99.90
16301;DHT22;8258;51.020;4.248;2024-03-17T13:47:26;15.40;99.90
16301;DHT22;8258;51.020;4.248;2024-03-17T13:49:53;15.30;99.90
16301;DHT22;8258;51.020;4.248;2024-03-17T13:52:20;15.30;99.90
16301;DHT22;8258;51.020;4.248;2024-03-17T13:54:47;15.30;99.90
16301;DHT22;8258;51.020;4.248;2024-03-17T13:57:14;15.30;99.90
16301;DHT22;8258;51.020;4.248;2024-03-17T13:59:42;15.20;99.90
16301;DHT22;8258;51.020;4.248;2024-03-17T14:02:12;15.20;99.90
16301;DHT22;8258;51.020;4.248;2024-03-17T14:04:41;15.20;99.90
16301;DHT22;8258;51.020;4.248;2024-03-17T14:07:07;15.20;99.90
16301;DHT22;8258;51.020;4.248;2024-03-17T14:09:34;15.10;99.90
16301;DHT22;8258;51.020;4.248;2024-03-17T14:12:01;14.90;99.90
16301;DHT22;8258;51.020;4.248;2024-03-17T14:14:28;15.10;99.90
16301;DHT22;8258;51.020;4.248;2024-03-17T14:16:55;15.00;99.90
16301;DHT22;8258;51.020;4.248;2024-03-17T14:19:22;14.90;99.90
16301;DHT22;8258;51.020;4.248;2024-03-17T14:21:51;14.80;99.90
16301;DHT22;8258;51.020;4.248;2024-03-17T14:24:18;14.80;99.90
16301;DHT22;8258;51.020;4.248;2024-03-17T14:26:46;14.70;99.90
16301;DHT22;8258;51.020;4.248;2024-03-17T14:29:13;14.60;99.90
16301;DHT22;8258;51.020;4.248;2024-03-17T14:31:40;14.50;99.90
16301;DHT22;8258;51.020;4.248;2024-03-17T14:34:09;14.40;99.90
16301;DHT22;8258;51.020;4.248;2024-03-17T14:36:36;14.30;99.90
16301;DHT22;8258;51.020;4.248;2024-03-17T14:39:05;14.20;99.90
16301;DHT22;8258;51.020;4.248;2024-03-17T14:41:33;14.10;99.90
16301;DHT22;8258;51.020;4.248;2024-03-17T14:44:00;13.90;99.90
16301;DHT22;8258;51.020;4.248;2024-03-17T14:46:27;13.80;99.90
16301;DHT22;8258;51.020;4.248;2024-03-17T14:48:54;13.70;99.90
16301;DHT22;8258;51.020;4.248;2024-03-17T14:51:21;13.90;99.90
16301;DHT22;8258;51.020;4.248;2024-03-17T14:53:48;14.00;99.90
16301;DHT22;8258;51.020;4.248;2024-03-17T14:56:18;13.90;99.90
16301;DHT22;8258;51.020;4.248;2024-03-17T14:58:46;13.90;99.90
16301;DHT22;8258;51.020;4.248;2024-03-17T15:01:13;13.90;99.90
16301;DHT22;8258;51.020;4.248;2024-03-17T15:03:40;13.90;99.90
16301;DHT22;8258;51.020;4.248;2024-03-17T15:06:11;14.00;99.90
16301;DHT22;8258;51.020;4.248;2024-03-17T15:08:38;14.00;99.90
16301;DHT22;8258;51.020;4.248;2024-03-17T15:11:05;14.00;99.90
16301;DHT22;8258;51.020;4.248;2024-03-17T15:13:34;14.10;99.90
16301;DHT22;8258;51.020;4.248;2024-03-17T15:16:02;14.10;99.90
16301;DHT22;8258;51.020;4.248;2024-03-17T15:18:30;14.10;99.90
16301;DHT22;8258;51.020;4.248;2024-03-17T15:20:57;14.10;99.90
16301;DHT22;8258;51.020;4.248;2024-03-17T15:23:26;14.10;99.90
16301;DHT22;8258;51.020;4.248;2024-03-17T15:25:59;14.00;99.90
16301;DHT22;8258;51.020;4.248;2024-03-17T15:28:27;14.00;99.90
16301;DHT22;8258;51.020;4.248;2024-03-17T15:30:57;14.00;99.90
16301;DHT22;8258;51.020;4.248;2024-03-17T15:33:26;14.00;99.90
16301;DHT22;8258;51.020;4.248;2024-03-17T15:35:53;14.10;99.90
16301;DHT22;8258;51.020;4.248;2024-03-17T15:38:20;14.10;99.90
16301;DHT22;8258;51.020;4.248;2024-03-17T15:40:48;14.00;99.90
16301;DHT22;8258;51.020;4.248;2024-03-17T15:43:15;14.00;99.90
16301;DHT22;8258;51.020;4.248;2024-03-17T15:45:43;13.90;99.90
16301;DHT22;8258;51.020;4.248;2024-03-17T15:48:12;13.80;99.90
16301;DHT22;8258;51.020;4.248;2024-03-17T15:50:38;13.60;99.90
16301;DHT22;8258;51.020;4.248;2024-03-17T15:53:08;13.50;99.90
16301;DHT22;8258;51.020;4.248;2024-03-17T15:55:35;13.40;99.90
16301;DHT22;8258;51.020;4.248;2024-03-17T15:58:03;13.30;99.90
16301;DHT22;8258;51.020;4.248;2024-03-17T16:00:30;13.10;99.90